createdAt,value
2018-12-09T00:00:19.972Z,1.90
2018-12-09T00:02:55.678Z,2.00
2018-12-09T00:05:29.519Z,2.10
2018-12-09T00:08:03.938Z,2.10
2018-12-09T00:10:38.179Z,2.20
2018-12-09T00:13:19.049Z,2.30
2018-12-09T00:15:54.100Z,2.30
2018-12-09T00:18:29.434Z,2.30
2018-12-09T00:21:00.455Z,2.20
2018-12-09T00:23:31.458Z,2.20
2018-12-09T00:26:06.054Z,2.20
2018-12-09T00:28:40.956Z,2.30
2018-12-09T00:31:22.534Z,2.30
2018-12-09T00:33:59.293Z,2.30
2018-12-09T00:36:34.533Z,2.20
2018-12-09T00:39:10.385Z,2.10
2018-12-09T00:41:45.604Z,1.90
2018-12-09T00:44:21.284Z,1.70
2018-12-09T00:46:56.017Z,1.50
2018-12-09T00:49:27.924Z,1.30
2018-12-09T00:52:02.244Z,1.10
2018-12-09T00:54:34.565Z,0.80
2018-12-09T00:57:14.223Z,0.60
2018-12-09T00:59:48.565Z,0.40
2018-12-09T01:02:22.526Z,0.40
2018-12-09T01:04:54.024Z,0.40
2018-12-09T01:07:26.023Z,0.40
2018-12-09T01:10:00.611Z,0.60
2018-12-09T01:12:38.725Z,0.60
2018-12-09T01:15:10.084Z,0.60
2018-12-09T01:17:44.644Z,0.60
2018-12-09T01:20:18.564Z,0.70
2018-12-09T01:22:56.343Z,0.80
2018-12-09T01:25:30.179Z,0.80
2018-12-09T01:28:04.478Z,0.80
2018-12-09T01:30:38.278Z,0.90
2018-12-09T01:33:18.720Z,1.10
2018-12-09T01:35:50.578Z,1.20
2018-12-09T01:38:25.338Z,1.30
2018-12-09T01:40:56.558Z,1.30
2018-12-09T01:43:28.539Z,1.30
2018-12-09T01:46:02.954Z,1.00
2018-12-09T01:48:37.639Z,0.80
2018-12-09T01:51:11.560Z,0.70
2018-12-09T01:53:51.379Z,0.60
2018-12-09T01:56:25.279Z,0.40
2018-12-09T01:58:59.239Z,0.30
2018-12-09T02:01:37.141Z,0.30
2018-12-09T02:04:11.241Z,0.30
2018-12-09T02:06:45.539Z,0.50
2018-12-09T02:09:16.678Z,0.70
2018-12-09T02:11:52.039Z,0.90
2018-12-09T02:14:30.698Z,1.00
2018-12-09T02:17:08.106Z,1.00
2018-12-09T02:19:42.418Z,1.00
2018-12-09T02:22:21.618Z,1.00
2018-12-09T02:24:56.317Z,0.90
2018-12-09T02:27:31.838Z,0.90
2018-12-09T02:30:07.680Z,1.00
2018-12-09T02:32:41.583Z,1.10
2018-12-09T03:03:36.739Z,1.00
2018-12-09T03:06:11.538Z,1.00
2018-12-09T03:08:47.361Z,1.10
2018-12-09T03:11:22.200Z,1.10
2018-12-09T03:13:56.698Z,1.10
2018-12-09T03:16:28.099Z,1.20
2018-12-09T03:19:02.753Z,1.30
2018-12-09T03:21:36.699Z,1.50
2018-12-09T03:24:10.730Z,1.70
2018-12-09T03:26:48.359Z,1.70
2018-12-09T03:29:23.878Z,1.70
2018-12-09T03:31:58.399Z,1.80
2018-12-09T03:34:36.859Z,1.80
2018-12-09T03:37:12.280Z,1.70
2018-12-09T03:39:54.218Z,1.50
2018-12-09T03:42:26.320Z,1.50
2018-12-09T03:45:01.097Z,1.30
2018-12-09T03:47:32.478Z,1.20
2018-12-09T03:50:05.658Z,1.20
2018-12-09T03:52:40.438Z,1.40
2018-12-09T03:55:15.218Z,1.60
2018-12-09T03:57:49.120Z,1.70
2018-12-09T04:00:22.873Z,1.60
2018-12-09T04:02:57.282Z,1.60
2018-12-09T04:05:31.103Z,1.50
2018-12-09T04:08:08.924Z,1.40
2018-12-09T04:10:42.884Z,1.20
2018-12-09T04:13:17.123Z,1.10
2018-12-09T04:15:51.619Z,1.00
2018-12-09T04:18:23.362Z,0.80
2018-12-09T04:20:58.040Z,0.70
2018-12-09T04:23:29.500Z,0.60
2018-12-09T04:26:04.337Z,0.60
2018-12-09T04:28:39.980Z,0.60
2018-12-09T04:31:11.300Z,0.50
2018-12-09T04:33:47.519Z,0.40
2018-12-09T04:36:19.059Z,0.40
2018-12-09T04:38:56.898Z,0.50
2018-12-09T04:41:30.698Z,0.50
2018-12-09T04:44:06.239Z,0.50
2018-12-09T04:46:40.539Z,0.50
2018-12-09T04:49:14.557Z,0.50
2018-12-09T04:51:53.198Z,0.40
2018-12-09T04:54:27.507Z,0.30
2018-12-09T04:57:02.019Z,0.30
2018-12-09T04:59:40.897Z,0.40
2018-12-09T05:02:15.060Z,0.40
2018-12-09T05:04:46.357Z,0.40
2018-12-09T05:07:21.066Z,0.30
2018-12-09T05:09:52.298Z,0.40
2018-12-09T05:12:26.879Z,0.60
2018-12-09T05:15:00.760Z,0.70
2018-12-09T05:17:49.439Z,0.80
2018-12-09T05:20:24.559Z,1.00
2018-12-09T05:22:58.779Z,1.20
2018-12-09T05:25:30.881Z,1.30
2018-12-09T05:28:05.118Z,1.40
2018-12-09T05:30:36.459Z,1.30
2018-12-09T05:33:10.719Z,1.20
2018-12-09T05:35:45.279Z,1.10
2018-12-09T05:38:19.519Z,1.20
2018-12-09T05:40:54.383Z,1.30
2018-12-09T05:43:33.747Z,1.30
2018-12-09T05:46:09.280Z,1.40
2018-12-09T05:48:43.200Z,1.40
2018-12-09T05:51:17.138Z,1.40
2018-12-09T05:53:53.157Z,1.60
2018-12-09T05:56:33.538Z,1.70
2018-12-09T05:59:08.158Z,1.50
2018-12-09T06:01:46.004Z,1.40
2018-12-09T06:04:20.224Z,1.30
2018-12-09T06:06:55.044Z,1.30
2018-12-09T06:09:29.823Z,1.40
2018-12-09T06:12:03.792Z,1.10
2018-12-09T06:14:38.724Z,0.90
2018-12-09T06:17:12.864Z,0.80
2018-12-09T06:19:46.844Z,0.90
2018-12-09T06:22:20.804Z,1.30
2018-12-09T06:24:52.804Z,1.50
2018-12-09T06:27:27.262Z,1.60
2018-12-09T06:29:58.105Z,1.50
2018-12-09T06:32:31.899Z,1.30
2018-12-09T06:35:07.202Z,1.00
2018-12-09T06:37:39.480Z,0.70
2018-12-09T06:40:11.241Z,0.60
2018-12-09T06:42:46.407Z,0.60
2018-12-09T06:45:17.901Z,0.60
2018-12-09T06:47:49.982Z,0.70
2018-12-09T06:50:22.401Z,0.70
2018-12-09T06:52:56.521Z,0.80
2018-12-09T06:55:34.699Z,0.90
2018-12-09T06:58:09.138Z,0.90
2018-12-09T07:00:44.179Z,1.00
2018-12-09T07:03:18.119Z,1.10
2018-12-09T07:05:54.820Z,1.20
2018-12-09T07:08:26.740Z,1.20
2018-12-09T07:11:01.761Z,1.30
2018-12-09T07:13:37.941Z,1.40
2018-12-09T07:16:12.659Z,1.50
2018-12-09T07:26:34.539Z,1.70
2018-12-09T07:29:08.760Z,1.70
2018-12-09T07:31:43.019Z,1.60
2018-12-09T07:34:18.360Z,1.60
2018-12-09T07:36:56.679Z,1.60
2018-12-09T07:39:31.061Z,1.60
2018-12-09T07:42:05.440Z,1.70
2018-12-09T07:44:37.100Z,1.60
2018-12-09T07:47:08.561Z,1.60
2018-12-09T07:49:42.961Z,1.50
2018-12-09T07:52:16.961Z,1.50
2018-12-09T07:54:51.823Z,1.50
2018-12-09T07:57:25.621Z,1.60
2018-12-09T07:59:57.217Z,1.60
2018-12-09T08:02:33.625Z,1.60
2018-12-09T08:05:08.479Z,1.80
2018-12-09T08:07:46.260Z,2.00
2018-12-09T08:10:21.039Z,2.20
2018-12-09T08:12:56.759Z,2.40
2018-12-09T08:15:31.159Z,2.60
2018-12-09T08:18:02.559Z,2.90
2018-12-09T08:20:34.566Z,3.10
2018-12-09T08:23:06.579Z,3.30
2018-12-09T08:25:38.159Z,3.40
2018-12-09T08:28:13.079Z,3.60
2018-12-09T08:30:48.299Z,3.80
2018-12-09T08:33:23.180Z,3.90
2018-12-09T08:36:00.859Z,4.00
2018-12-09T08:38:34.999Z,4.00
2018-12-09T08:41:10.718Z,4.20
2018-12-09T08:43:42.477Z,4.20
2018-12-09T08:46:20.539Z,4.40
2018-12-09T08:48:52.157Z,4.60
2018-12-09T08:51:28.597Z,4.60
2018-12-09T08:54:10.257Z,4.70
2018-12-09T08:56:44.118Z,4.80
2018-12-09T08:59:18.379Z,4.90
2018-12-09T09:01:52.186Z,5.00
2018-12-09T09:04:26.326Z,5.10
2018-12-09T09:06:57.918Z,5.30
2018-12-09T09:09:32.440Z,5.40
2018-12-09T09:12:03.440Z,5.50
2018-12-09T09:14:41.160Z,5.40
2018-12-09T09:17:14.882Z,5.30
2018-12-09T09:19:48.945Z,4.90
2018-12-09T09:22:20.803Z,4.50
2018-12-09T09:24:52.321Z,4.30
2018-12-09T09:27:24.318Z,4.00
2018-12-09T09:40:18.937Z,3.80
2018-12-09T09:48:02.126Z,4.20
2018-12-09T09:50:45.100Z,4.40
2018-12-09T09:53:15.079Z,4.50
2018-12-09T09:55:49.529Z,4.70
2018-12-09T09:58:24.507Z,4.90
2018-12-09T10:01:00.041Z,5.00
2018-12-09T10:03:34.606Z,5.20
2018-12-09T10:08:52.378Z,5.40
2018-12-09T10:11:27.118Z,5.50
2018-12-09T10:13:58.830Z,5.40
2018-12-09T10:16:33.585Z,5.40
2018-12-09T10:19:11.793Z,5.40
2018-12-09T10:21:46.158Z,5.30
2018-12-09T10:24:21.344Z,5.30
2018-12-09T10:26:56.996Z,5.20
2018-12-09T10:29:31.301Z,5.30
2018-12-09T10:32:09.218Z,5.30
2018-12-09T10:34:41.578Z,5.40
2018-12-09T10:37:14.882Z,5.60
2018-12-09T10:39:49.211Z,5.70
2018-12-09T10:42:23.618Z,5.80
2018-12-09T10:44:59.822Z,5.80
2018-12-09T10:47:36.538Z,5.90
2018-12-09T10:50:17.357Z,5.90
2018-12-09T10:52:51.699Z,5.90
2018-12-09T10:55:25.160Z,5.90
2018-12-09T10:57:59.047Z,5.90
2018-12-09T11:00:40.213Z,5.90
2018-12-09T11:06:20.600Z,5.90
2018-12-09T11:08:56.480Z,5.90
2018-12-09T11:11:32.092Z,5.90
2018-12-09T11:14:09.790Z,5.80
2018-12-09T11:16:41.896Z,5.70
2018-12-09T11:19:20.131Z,5.60
2018-12-09T11:21:55.107Z,5.50
2018-12-09T11:24:33.787Z,5.50
2018-12-09T11:27:05.860Z,5.40
2018-12-09T11:29:40.746Z,5.40
2018-12-09T11:32:15.743Z,5.40
2018-12-09T11:34:51.271Z,5.50
2018-12-09T11:37:27.438Z,5.40
2018-12-09T11:40:02.498Z,5.40
2018-12-09T11:42:42.763Z,5.40
2018-12-09T11:45:18.740Z,5.40
2018-12-09T11:47:54.028Z,5.40
2018-12-09T11:50:40.809Z,5.40
2018-12-09T11:53:13.610Z,5.40
2018-12-09T11:55:47.028Z,5.40
2018-12-09T11:58:25.590Z,5.40
2018-12-09T12:01:02.168Z,5.50
2018-12-09T12:03:33.848Z,5.60
2018-12-09T12:06:06.092Z,5.70
2018-12-09T12:08:47.157Z,5.80
2018-12-09T12:14:34.167Z,5.90
2018-12-09T12:17:05.936Z,5.90
2018-12-09T12:19:42.487Z,5.80
2018-12-09T12:22:17.889Z,5.70
2018-12-09T12:24:54.799Z,5.60
2018-12-09T12:27:29.039Z,5.50
2018-12-09T12:30:03.259Z,5.50
2018-12-09T12:32:38.719Z,5.50
2018-12-09T12:35:11.908Z,5.40
2018-12-09T12:37:45.468Z,5.40
2018-12-09T12:40:17.527Z,5.40
2018-12-09T12:42:53.779Z,5.40
2018-12-09T12:45:35.205Z,5.40
2018-12-09T12:48:09.828Z,5.40
2018-12-09T12:50:45.145Z,5.50
2018-12-09T12:53:20.323Z,5.60
2018-12-09T12:55:55.268Z,5.60
2018-12-09T12:58:30.542Z,5.70
2018-12-09T13:01:05.622Z,5.80
2018-12-09T13:03:38.886Z,5.70
2018-12-09T13:06:10.606Z,5.70
2018-12-09T13:08:45.223Z,5.80
2018-12-09T13:11:19.479Z,5.80
2018-12-09T13:14:02.539Z,5.80
2018-12-09T13:16:41.361Z,5.80
2018-12-09T13:19:13.908Z,5.80
2018-12-09T13:21:53.424Z,6.00
2018-12-09T13:24:27.903Z,6.00
2018-12-09T13:27:02.283Z,6.20
2018-12-09T13:29:33.546Z,6.10
2018-12-09T13:32:08.145Z,6.10
2018-12-09T13:34:39.464Z,6.00
2018-12-09T13:37:17.978Z,6.00
2018-12-09T13:39:50.761Z,6.00
2018-12-09T13:42:28.663Z,6.10
2018-12-09T13:45:05.534Z,6.30
2018-12-09T13:47:36.939Z,6.30
2018-12-09T13:50:15.662Z,6.30
2018-12-09T13:52:56.807Z,6.20
2018-12-09T13:55:30.907Z,6.10
2018-12-09T13:58:11.468Z,6.10
2018-12-09T14:00:46.949Z,6.10
2018-12-09T14:03:20.882Z,6.00
2018-12-09T14:05:59.106Z,6.00
2018-12-09T14:08:34.200Z,5.90
2018-12-09T14:11:16.141Z,6.00
2018-12-09T14:13:52.102Z,6.00
2018-12-09T14:16:33.630Z,5.80
2018-12-09T14:19:09.639Z,5.80
2018-12-09T14:21:45.510Z,5.80
2018-12-09T14:24:19.671Z,5.80
2018-12-09T14:26:51.062Z,5.90
2018-12-09T14:29:25.995Z,6.00
2018-12-09T14:32:00.649Z,6.00
2018-12-09T14:34:35.543Z,6.00
2018-12-09T14:37:14.705Z,6.00
2018-12-09T14:39:46.119Z,6.00
2018-12-09T14:42:20.861Z,6.10
2018-12-09T14:44:59.705Z,6.00
2018-12-09T14:47:31.536Z,6.00
2018-12-09T14:50:08.530Z,5.90
2018-12-09T14:52:44.744Z,5.90
2018-12-09T14:55:21.638Z,5.80
2018-12-09T14:57:52.905Z,5.80
2018-12-09T15:00:32.738Z,5.70
2018-12-09T15:03:07.562Z,5.60
2018-12-09T15:05:39.073Z,5.60
2018-12-09T15:08:10.062Z,5.50
2018-12-09T15:10:43.851Z,5.50
2018-12-09T15:13:15.204Z,5.40
2018-12-09T15:15:50.447Z,5.30
2018-12-09T15:18:25.870Z,5.20
2018-12-09T15:21:00.654Z,5.10
2018-12-09T15:23:32.982Z,5.10
2018-12-09T15:26:05.034Z,5.10
2018-12-09T15:28:44.210Z,5.10
2018-12-09T15:31:19.981Z,5.00
2018-12-09T15:33:55.864Z,5.00
2018-12-09T15:39:28.679Z,5.00
2018-12-09T15:42:04.602Z,5.00
2018-12-09T15:44:42.166Z,5.10
2018-12-09T15:47:16.351Z,5.00
2018-12-09T15:49:52.628Z,5.10
2018-12-09T15:52:35.315Z,5.20
2018-12-09T15:55:16.746Z,5.10
2018-12-09T15:57:53.299Z,4.90
2018-12-09T16:00:31.093Z,5.00
2018-12-09T16:03:05.554Z,5.00
2018-12-09T16:05:43.566Z,5.10
2018-12-09T16:08:19.061Z,5.30
2018-12-09T16:10:54.026Z,5.10
2018-12-09T16:13:25.347Z,5.00
2018-12-09T16:15:59.526Z,4.80
2018-12-09T16:18:34.398Z,4.80
2018-12-09T16:21:12.076Z,4.80
2018-12-09T16:23:46.863Z,4.90
2018-12-09T16:26:18.606Z,4.90
2018-12-09T16:29:03.585Z,4.90
2018-12-09T16:31:38.924Z,4.70
2018-12-09T16:34:12.847Z,4.50
2018-12-09T16:36:52.126Z,4.50
2018-12-09T16:39:24.817Z,4.60
2018-12-09T16:41:58.727Z,4.80
2018-12-09T16:44:32.738Z,4.90
2018-12-09T16:47:07.529Z,4.90
2018-12-09T16:49:41.830Z,4.90
2018-12-09T16:52:14.012Z,4.90
2018-12-09T16:54:52.250Z,4.80
2018-12-09T16:57:26.118Z,4.80
2018-12-09T17:00:00.493Z,4.80
2018-12-09T17:02:37.695Z,4.60
2018-12-09T17:05:15.919Z,4.40
2018-12-09T17:07:49.996Z,4.40
2018-12-09T17:10:35.182Z,4.50
2018-12-09T17:13:09.088Z,4.50
2018-12-09T17:15:43.907Z,4.50
2018-12-09T17:18:17.653Z,4.40
2018-12-09T17:20:53.692Z,4.40
2018-12-09T17:23:27.449Z,4.40
2018-12-09T17:26:01.747Z,4.40
2018-12-09T17:28:38.004Z,4.40
2018-12-09T17:31:17.711Z,4.40
2018-12-09T17:34:01.892Z,4.30
2018-12-09T17:36:36.204Z,4.30
2018-12-09T17:39:12.957Z,4.40
2018-12-09T17:41:48.604Z,4.60
2018-12-09T17:44:22.518Z,4.60
2018-12-09T17:46:54.971Z,4.70
2018-12-09T17:49:26.427Z,4.70
2018-12-09T17:51:59.252Z,4.70
2018-12-09T17:54:32.996Z,4.70
2018-12-09T17:57:07.888Z,4.80
2018-12-09T17:59:41.982Z,4.80
2018-12-09T18:02:16.251Z,4.80
2018-12-09T18:04:51.050Z,4.80
2018-12-09T18:07:23.326Z,4.80
2018-12-09T18:09:55.266Z,4.70
2018-12-09T18:12:28.002Z,4.70
2018-12-09T18:15:02.512Z,4.70
2018-12-09T18:17:36.527Z,4.70
2018-12-09T18:20:07.745Z,4.70
2018-12-09T18:22:43.564Z,4.60
2018-12-09T18:25:18.486Z,4.80
2018-12-09T18:27:58.091Z,4.90
2018-12-09T18:30:44.017Z,4.80
2018-12-09T18:33:26.107Z,4.60
2018-12-09T18:36:04.769Z,4.30
2018-12-09T18:38:46.041Z,4.10
2018-12-09T18:41:20.844Z,3.90
2018-12-09T18:43:56.164Z,3.80
2018-12-09T18:46:31.366Z,3.70
2018-12-09T18:49:07.730Z,3.60
2018-12-09T18:51:47.289Z,3.40
2018-12-09T18:54:21.770Z,3.30
2018-12-09T18:56:58.803Z,3.30
2018-12-09T18:59:31.321Z,3.20
2018-12-09T19:02:07.070Z,3.10
2018-12-09T19:04:43.321Z,3.30
2018-12-09T19:07:18.423Z,3.10
2018-12-09T19:09:50.964Z,2.90
2018-12-09T19:12:29.584Z,2.90
2018-12-09T19:15:02.160Z,2.90
2018-12-09T19:17:37.285Z,3.10
2018-12-09T19:20:13.169Z,3.30
2018-12-09T19:22:48.956Z,3.40
2018-12-09T19:25:24.165Z,3.40
2018-12-09T19:28:00.429Z,3.50
2018-12-09T19:30:48.151Z,3.70
2018-12-09T19:33:18.630Z,4.00
2018-12-09T19:35:53.385Z,4.00
2018-12-09T19:38:40.014Z,4.00
2018-12-09T19:41:13.310Z,4.10
2018-12-09T19:43:52.671Z,4.10
2018-12-09T19:46:28.968Z,4.40
2018-12-09T19:49:06.262Z,4.60
2018-12-09T19:51:45.845Z,4.70
2018-12-09T19:54:21.470Z,4.80
2018-12-09T19:56:59.532Z,4.60
2018-12-09T19:59:34.407Z,4.40
2018-12-09T20:02:08.801Z,4.00
2018-12-09T20:04:43.261Z,3.50
2018-12-09T20:07:18.576Z,3.20
2018-12-09T20:09:59.110Z,2.90
2018-12-09T20:12:38.535Z,2.70
2018-12-09T20:15:14.248Z,2.40
2018-12-09T20:17:49.554Z,2.20
2018-12-09T20:20:22.594Z,2.10
2018-12-09T20:22:58.355Z,2.10
2018-12-09T20:25:33.098Z,2.10
2018-12-09T20:28:09.389Z,2.20
2018-12-09T20:30:45.343Z,2.30
2018-12-09T20:33:26.093Z,2.20
2018-12-09T20:36:02.021Z,2.30
2018-12-09T20:38:42.702Z,2.40
2018-12-09T20:41:17.098Z,2.70
2018-12-09T20:43:57.738Z,2.90
2018-12-09T20:46:34.898Z,3.00
2018-12-09T20:49:15.249Z,3.10
2018-12-09T20:51:49.788Z,3.20
2018-12-09T20:54:22.558Z,3.30
2018-12-09T20:57:03.600Z,3.40
2018-12-09T20:59:45.368Z,3.40
2018-12-09T21:02:22.169Z,3.40
2018-12-09T21:04:57.307Z,3.30
2018-12-09T21:07:45.047Z,3.30
2018-12-09T21:10:21.339Z,3.30
2018-12-09T21:12:55.910Z,3.20
2018-12-09T21:15:28.756Z,3.20
2018-12-09T21:18:04.384Z,3.10
2018-12-09T21:20:47.564Z,3.00
2018-12-09T21:23:20.730Z,2.80
2018-12-09T21:25:53.791Z,2.70
2018-12-09T21:28:28.552Z,2.60
2018-12-09T21:31:04.426Z,2.60
2018-12-09T21:33:40.322Z,2.60
2018-12-09T21:36:14.383Z,2.60
2018-12-09T21:38:49.934Z,2.60
2018-12-09T21:59:26.898Z,2.70
2018-12-09T22:02:03.184Z,2.80
2018-12-09T22:04:38.702Z,2.90
2018-12-09T22:07:12.207Z,2.90
2018-12-09T22:09:51.318Z,3.00
2018-12-09T22:12:29.740Z,3.00
2018-12-09T22:15:02.147Z,3.10
2018-12-09T22:17:36.780Z,3.10
2018-12-09T22:20:12.225Z,3.00
2018-12-09T22:22:51.426Z,3.00
2018-12-09T22:25:23.822Z,2.90
2018-12-09T22:28:04.785Z,2.80
2018-12-09T22:30:44.918Z,2.80
2018-12-09T22:33:20.314Z,2.80
2018-12-09T22:35:56.163Z,2.80
2018-12-09T22:38:31.240Z,2.90
2018-12-09T22:41:07.341Z,2.80
2018-12-09T22:43:43.541Z,2.80
2018-12-09T22:46:19.642Z,2.80
2018-12-09T22:48:55.299Z,2.80
2018-12-09T22:51:31.578Z,2.90
2018-12-09T22:54:06.554Z,2.90
2018-12-09T22:56:38.084Z,2.90
2018-12-09T22:59:13.072Z,3.00
2018-12-09T23:05:01.046Z,2.90
2018-12-09T23:07:41.227Z,2.90
2018-12-09T23:10:21.958Z,2.90
2018-12-09T23:12:57.061Z,2.80
2018-12-09T23:15:39.222Z,2.80
2018-12-09T23:18:14.166Z,2.80
2018-12-09T23:20:48.085Z,2.70
2018-12-09T23:23:28.267Z,2.60
2018-12-09T23:26:03.473Z,2.60
2018-12-09T23:28:38.036Z,2.60
2018-12-09T23:31:13.565Z,2.70
2018-12-09T23:33:49.605Z,2.60
2018-12-09T23:36:22.131Z,2.60
2018-12-09T23:38:58.863Z,2.50
2018-12-09T23:41:34.322Z,2.50
2018-12-09T23:44:10.420Z,2.40
2018-12-09T23:46:45.994Z,2.40
2018-12-09T23:49:20.767Z,2.40
2018-12-09T23:51:55.527Z,2.40
2018-12-09T23:54:29.795Z,2.40
2018-12-09T23:57:05.040Z,2.30
2018-12-09T23:59:37.105Z,2.30
